<?xml version="1.0" encoding="UTF-8"?>
<gpx xmlns="http://www.topografix.com/GPX/1/1" xmlns:xsi="http://www.w3.org/2001/XMLSchema-instance" version="1.1" xsi:schemaLocation="http://www.topografix.com/GPX/1/1 http://www.topografix.com/GPX/1/1/gpx.xsd">
  <metadata>
    <name>Deer Creek Triathlon 2022 - Olympic Aquabike</name>
  </metadata>
  <trk>
    <name>Deer Creek Triathlon 2022 - Olympic Aquabike</name>
    <trkseg>
      <trkpt lat="39.615796" lon="-83.225307">
        <ele>261.552457</ele>
        <time>2024-06-02T08:00:00.000Z</time>
      </trkpt>
      <trkpt lat="39.615788" lon="-83.225309">
        <ele>261.552462</ele>
        <time>2024-06-02T08:00:00.000Z</time>
      </trkpt>
      <trkpt lat="39.615662" lon="-83.225168">
        <ele>261.55246</ele>
        <time>2024-06-02T08:00:02.000Z</time>
      </trkpt>
      <trkpt lat="39.615488" lon="-83.224857">
        <ele>261.552473</ele>
        <time>2024-06-02T08:00:05.000Z</time>
      </trkpt>
      <trkpt lat="39.61535" lon="-83.224088">
        <ele>261.506887</ele>
        <time>2024-06-02T08:00:12.000Z</time>
      </trkpt>
      <trkpt lat="39.615235" lon="-83.223464">
        <ele>261.385303</ele>
        <time>2024-06-02T08:00:17.000Z</time>
      </trkpt>
      <trkpt lat="39.61501" lon="-83.22292">
        <ele>261.263507</ele>
        <time>2024-06-02T08:00:22.000Z</time>
      </trkpt>
      <trkpt lat="39.614439" lon="-83.222029">
        <ele>261.045629</ele>
        <time>2024-06-02T08:00:32.000Z</time>
      </trkpt>
      <trkpt lat="39.614259" lon="-83.221598">
        <ele>260.955958</ele>
        <time>2024-06-02T08:00:36.000Z</time>
      </trkpt>
      <trkpt lat="39.614095" lon="-83.220622">
        <ele>260.777945</ele>
        <time>2024-06-02T08:00:45.000Z</time>
      </trkpt>
      <trkpt lat="39.613787" lon="-83.220725">
        <ele>260.703061</ele>
        <time>2024-06-02T08:00:49.000Z</time>
      </trkpt>
      <trkpt lat="39.610595" lon="-83.221607">
        <ele>261.441343</ele>
        <time>2024-06-02T08:01:25.000Z</time>
      </trkpt>
      <trkpt lat="39.607577" lon="-83.22243">
        <ele>262.390553</ele>
        <time>2024-06-02T08:01:59.000Z</time>
      </trkpt>
      <trkpt lat="39.607177" lon="-83.22268">
        <ele>262.492282</ele>
        <time>2024-06-02T08:02:04.000Z</time>
      </trkpt>
      <trkpt lat="39.603029" lon="-83.2296">
        <ele>262.675176</ele>
        <time>2024-06-02T08:03:19.000Z</time>
      </trkpt>
      <trkpt lat="39.602852" lon="-83.229886">
        <ele>262.642663</ele>
        <time>2024-06-02T08:03:22.000Z</time>
      </trkpt>
      <trkpt lat="39.602575" lon="-83.23037">
        <ele>262.58876</ele>
        <time>2024-06-02T08:03:27.000Z</time>
      </trkpt>
      <trkpt lat="39.602297" lon="-83.230846">
        <ele>262.547766</ele>
        <time>2024-06-02T08:03:32.000Z</time>
      </trkpt>
      <trkpt lat="39.601911" lon="-83.23148">
        <ele>262.499125</ele>
        <time>2024-06-02T08:03:39.000Z</time>
      </trkpt>
      <trkpt lat="39.601568" lon="-83.232032">
        <ele>262.456893</ele>
        <time>2024-06-02T08:03:45.000Z</time>
      </trkpt>
      <trkpt lat="39.599774" lon="-83.235038">
        <ele>262.483825</ele>
        <time>2024-06-02T08:04:18.000Z</time>
      </trkpt>
      <trkpt lat="39.599642" lon="-83.235287">
        <ele>262.465521</ele>
        <time>2024-06-02T08:04:21.000Z</time>
      </trkpt>
      <trkpt lat="39.59897" lon="-83.236416">
        <ele>262.185414</ele>
        <time>2024-06-02T08:04:33.000Z</time>
      </trkpt>
      <trkpt lat="39.604135" lon="-83.242063">
        <ele>256.822386</ele>
        <time>2024-06-02T08:05:48.000Z</time>
      </trkpt>
      <trkpt lat="39.604651" lon="-83.242712">
        <ele>254.777088</ele>
        <time>2024-06-02T08:05:56.000Z</time>
      </trkpt>
      <trkpt lat="39.605922" lon="-83.244801">
        <ele>249.517536</ele>
        <time>2024-06-02T08:06:19.000Z</time>
      </trkpt>
      <trkpt lat="39.60641" lon="-83.245493">
        <ele>248.345919</ele>
        <time>2024-06-02T08:06:27.000Z</time>
      </trkpt>
      <trkpt lat="39.609549" lon="-83.248625">
        <ele>256.189294</ele>
        <time>2024-06-02T08:07:11.000Z</time>
      </trkpt>
      <trkpt lat="39.612088" lon="-83.251177">
        <ele>256.865415</ele>
        <time>2024-06-02T08:07:47.000Z</time>
      </trkpt>
      <trkpt lat="39.612621" lon="-83.251886">
        <ele>257.338539</ele>
        <time>2024-06-02T08:07:55.000Z</time>
      </trkpt>
      <trkpt lat="39.617103" lon="-83.258475">
        <ele>263.395571</ele>
        <time>2024-06-02T08:09:10.000Z</time>
      </trkpt>
      <trkpt lat="39.617236" lon="-83.258664">
        <ele>263.42534</ele>
        <time>2024-06-02T08:09:12.000Z</time>
      </trkpt>
      <trkpt lat="39.620572" lon="-83.262683">
        <ele>263.916245</ele>
        <time>2024-06-02T08:10:03.000Z</time>
      </trkpt>
      <trkpt lat="39.622299" lon="-83.264338">
        <ele>263.660632</ele>
        <time>2024-06-02T08:10:27.000Z</time>
      </trkpt>
      <trkpt lat="39.622359" lon="-83.264402">
        <ele>263.647026</ele>
        <time>2024-06-02T08:10:28.000Z</time>
      </trkpt>
      <trkpt lat="39.623153" lon="-83.2651">
        <ele>263.438281</ele>
        <time>2024-06-02T08:10:39.000Z</time>
      </trkpt>
      <trkpt lat="39.623611" lon="-83.265323">
        <ele>263.327127</ele>
        <time>2024-06-02T08:10:44.000Z</time>
      </trkpt>
      <trkpt lat="39.624157" lon="-83.265491">
        <ele>263.20908</ele>
        <time>2024-06-02T08:10:50.000Z</time>
      </trkpt>
      <trkpt lat="39.624671" lon="-83.265643">
        <ele>263.151883</ele>
        <time>2024-06-02T08:10:56.000Z</time>
      </trkpt>
      <trkpt lat="39.62518" lon="-83.265781">
        <ele>263.095896</ele>
        <time>2024-06-02T08:11:02.000Z</time>
      </trkpt>
      <trkpt lat="39.625673" lon="-83.265912">
        <ele>263.039687</ele>
        <time>2024-06-02T08:11:08.000Z</time>
      </trkpt>
      <trkpt lat="39.626173" lon="-83.266073">
        <ele>262.732536</ele>
        <time>2024-06-02T08:11:14.000Z</time>
      </trkpt>
      <trkpt lat="39.626673" lon="-83.26621">
        <ele>262.304487</ele>
        <time>2024-06-02T08:11:20.000Z</time>
      </trkpt>
      <trkpt lat="39.626924" lon="-83.266294">
        <ele>262.095229</ele>
        <time>2024-06-02T08:11:23.000Z</time>
      </trkpt>
      <trkpt lat="39.627454" lon="-83.266445">
        <ele>261.626979</ele>
        <time>2024-06-02T08:11:29.000Z</time>
      </trkpt>
      <trkpt lat="39.627594" lon="-83.266486">
        <ele>261.519216</ele>
        <time>2024-06-02T08:11:31.000Z</time>
      </trkpt>
      <trkpt lat="39.628094" lon="-83.266618">
        <ele>260.642704</ele>
        <time>2024-06-02T08:11:37.000Z</time>
      </trkpt>
      <trkpt lat="39.629369" lon="-83.267108">
        <ele>258.428614</ele>
        <time>2024-06-02T08:11:52.000Z</time>
      </trkpt>
      <trkpt lat="39.631821" lon="-83.26862">
        <ele>257.763666</ele>
        <time>2024-06-02T08:12:22.000Z</time>
      </trkpt>
      <trkpt lat="39.63827" lon="-83.272669">
        <ele>259.796244</ele>
        <time>2024-06-02T08:13:42.000Z</time>
      </trkpt>
      <trkpt lat="39.64116" lon="-83.274455">
        <ele>257.618074</ele>
        <time>2024-06-02T08:14:18.000Z</time>
      </trkpt>
      <trkpt lat="39.641639" lon="-83.274678">
        <ele>257.335327</ele>
        <time>2024-06-02T08:14:24.000Z</time>
      </trkpt>
      <trkpt lat="39.642265" lon="-83.274797">
        <ele>256.986043</ele>
        <time>2024-06-02T08:14:31.000Z</time>
      </trkpt>
      <trkpt lat="39.642965" lon="-83.274772">
        <ele>256.874393</ele>
        <time>2024-06-02T08:14:39.000Z</time>
      </trkpt>
      <trkpt lat="39.643758" lon="-83.274657">
        <ele>256.814551</ele>
        <time>2024-06-02T08:14:48.000Z</time>
      </trkpt>
      <trkpt lat="39.652617" lon="-83.273297">
        <ele>256.269362</ele>
        <time>2024-06-02T08:16:27.000Z</time>
      </trkpt>
      <trkpt lat="39.653583" lon="-83.273042">
        <ele>255.915882</ele>
        <time>2024-06-02T08:16:38.000Z</time>
      </trkpt>
      <trkpt lat="39.654248" lon="-83.272728">
        <ele>255.54861</ele>
        <time>2024-06-02T08:16:46.000Z</time>
      </trkpt>
      <trkpt lat="39.657683" lon="-83.270658">
        <ele>254.553648</ele>
        <time>2024-06-02T08:17:28.000Z</time>
      </trkpt>
      <trkpt lat="39.658276" lon="-83.270309">
        <ele>254.57011</ele>
        <time>2024-06-02T08:17:35.000Z</time>
      </trkpt>
      <trkpt lat="39.660686" lon="-83.268856">
        <ele>254.738578</ele>
        <time>2024-06-02T08:18:05.000Z</time>
      </trkpt>
      <trkpt lat="39.661375" lon="-83.268501">
        <ele>254.540164</ele>
        <time>2024-06-02T08:18:13.000Z</time>
      </trkpt>
      <trkpt lat="39.66123" lon="-83.267786">
        <ele>253.787507</ele>
        <time>2024-06-02T08:18:19.000Z</time>
      </trkpt>
      <trkpt lat="39.660795" lon="-83.266522">
        <ele>252.37641</ele>
        <time>2024-06-02T08:18:31.000Z</time>
      </trkpt>
      <trkpt lat="39.660415" lon="-83.265333">
        <ele>251.162584</ele>
        <time>2024-06-02T08:18:42.000Z</time>
      </trkpt>
      <trkpt lat="39.660395" lon="-83.265282">
        <ele>251.105572</ele>
        <time>2024-06-02T08:18:42.000Z</time>
      </trkpt>
      <trkpt lat="39.659801" lon="-83.263476">
        <ele>249.898413</ele>
        <time>2024-06-02T08:18:59.000Z</time>
      </trkpt>
      <trkpt lat="39.659575" lon="-83.262659">
        <ele>249.738612</ele>
        <time>2024-06-02T08:19:06.000Z</time>
      </trkpt>
      <trkpt lat="39.659446" lon="-83.261669">
        <ele>249.948589</ele>
        <time>2024-06-02T08:19:15.000Z</time>
      </trkpt>
      <trkpt lat="39.659151" lon="-83.258064">
        <ele>254.677204</ele>
        <time>2024-06-02T08:19:46.000Z</time>
      </trkpt>
      <trkpt lat="39.659058" lon="-83.257546">
        <ele>255.609395</ele>
        <time>2024-06-02T08:19:51.000Z</time>
      </trkpt>
      <trkpt lat="39.658948" lon="-83.257188">
        <ele>256.739809</ele>
        <time>2024-06-02T08:19:54.000Z</time>
      </trkpt>
      <trkpt lat="39.658774" lon="-83.256871">
        <ele>258.141061</ele>
        <time>2024-06-02T08:19:57.000Z</time>
      </trkpt>
      <trkpt lat="39.657785" lon="-83.255631">
        <ele>264.431334</ele>
        <time>2024-06-02T08:20:12.000Z</time>
      </trkpt>
      <trkpt lat="39.65767" lon="-83.255479">
        <ele>264.864121</ele>
        <time>2024-06-02T08:20:14.000Z</time>
      </trkpt>
      <trkpt lat="39.65669" lon="-83.254288">
        <ele>268.288784</ele>
        <time>2024-06-02T08:20:29.000Z</time>
      </trkpt>
      <trkpt lat="39.656594" lon="-83.254164">
        <ele>268.613735</ele>
        <time>2024-06-02T08:20:31.000Z</time>
      </trkpt>
      <trkpt lat="39.656229" lon="-83.253737">
        <ele>268.902014</ele>
        <time>2024-06-02T08:20:36.000Z</time>
      </trkpt>
      <trkpt lat="39.655777" lon="-83.25318">
        <ele>268.96457</ele>
        <time>2024-06-02T08:20:43.000Z</time>
      </trkpt>
      <trkpt lat="39.654699" lon="-83.251906">
        <ele>268.931004</ele>
        <time>2024-06-02T08:20:59.000Z</time>
      </trkpt>
      <trkpt lat="39.65416" lon="-83.251184">
        <ele>268.799745</ele>
        <time>2024-06-02T08:21:08.000Z</time>
      </trkpt>
      <trkpt lat="39.653886" lon="-83.250572">
        <ele>268.70089</ele>
        <time>2024-06-02T08:21:14.000Z</time>
      </trkpt>
      <trkpt lat="39.653475" lon="-83.249285">
        <ele>268.470567</ele>
        <time>2024-06-02T08:21:26.000Z</time>
      </trkpt>
      <trkpt lat="39.652294" lon="-83.245641">
        <ele>267.39916</ele>
        <time>2024-06-02T08:22:00.000Z</time>
      </trkpt>
      <trkpt lat="39.650943" lon="-83.241507">
        <ele>264.221718</ele>
        <time>2024-06-02T08:22:38.000Z</time>
      </trkpt>
      <trkpt lat="39.650545" lon="-83.240247">
        <ele>262.92116</ele>
        <time>2024-06-02T08:22:50.000Z</time>
      </trkpt>
      <trkpt lat="39.649929" lon="-83.23835">
        <ele>262.486433</ele>
        <time>2024-06-02T08:23:08.000Z</time>
      </trkpt>
      <trkpt lat="39.649584" lon="-83.237311">
        <ele>262.970389</ele>
        <time>2024-06-02T08:23:18.000Z</time>
      </trkpt>
      <trkpt lat="39.649327" lon="-83.236508">
        <ele>263.708046</ele>
        <time>2024-06-02T08:23:25.000Z</time>
      </trkpt>
      <trkpt lat="39.648884" lon="-83.23515">
        <ele>264.594713</ele>
        <time>2024-06-02T08:23:38.000Z</time>
      </trkpt>
      <trkpt lat="39.647895" lon="-83.231423">
        <ele>265.091541</ele>
        <time>2024-06-02T08:24:12.000Z</time>
      </trkpt>
      <trkpt lat="39.647588" lon="-83.2304">
        <ele>265.079761</ele>
        <time>2024-06-02T08:24:21.000Z</time>
      </trkpt>
      <trkpt lat="39.646136" lon="-83.22559">
        <ele>264.990005</ele>
        <time>2024-06-02T08:25:05.000Z</time>
      </trkpt>
      <trkpt lat="39.645395" lon="-83.223113">
        <ele>264.860737</ele>
        <time>2024-06-02T08:25:28.000Z</time>
      </trkpt>
      <trkpt lat="39.643221" lon="-83.216188">
        <ele>263.972121</ele>
        <time>2024-06-02T08:26:32.000Z</time>
      </trkpt>
      <trkpt lat="39.640586" lon="-83.207817">
        <ele>262.150423</ele>
        <time>2024-06-02T08:27:49.000Z</time>
      </trkpt>
      <trkpt lat="39.640298" lon="-83.206909">
        <ele>262.04802</ele>
        <time>2024-06-02T08:27:57.000Z</time>
      </trkpt>
      <trkpt lat="39.640096" lon="-83.20625">
        <ele>262.005326</ele>
        <time>2024-06-02T08:28:03.000Z</time>
      </trkpt>
      <trkpt lat="39.638727" lon="-83.206319">
        <ele>261.880434</ele>
        <time>2024-06-02T08:28:18.000Z</time>
      </trkpt>
      <trkpt lat="39.638155" lon="-83.206353">
        <ele>261.81878</ele>
        <time>2024-06-02T08:28:24.000Z</time>
      </trkpt>
      <trkpt lat="39.637708" lon="-83.206394">
        <ele>261.771511</ele>
        <time>2024-06-02T08:28:29.000Z</time>
      </trkpt>
      <trkpt lat="39.636844" lon="-83.206443">
        <ele>261.584648</ele>
        <time>2024-06-02T08:28:39.000Z</time>
      </trkpt>
      <trkpt lat="39.636501" lon="-83.206456">
        <ele>261.497638</ele>
        <time>2024-06-02T08:28:43.000Z</time>
      </trkpt>
      <trkpt lat="39.636112" lon="-83.206476">
        <ele>261.401284</ele>
        <time>2024-06-02T08:28:47.000Z</time>
      </trkpt>
      <trkpt lat="39.634885" lon="-83.206545">
        <ele>261.247745</ele>
        <time>2024-06-02T08:29:01.000Z</time>
      </trkpt>
      <trkpt lat="39.634206" lon="-83.206573">
        <ele>261.197248</ele>
        <time>2024-06-02T08:29:09.000Z</time>
      </trkpt>
      <trkpt lat="39.634092" lon="-83.206396">
        <ele>261.184227</ele>
        <time>2024-06-02T08:29:11.000Z</time>
      </trkpt>
      <trkpt lat="39.633994" lon="-83.205477">
        <ele>261.270007</ele>
        <time>2024-06-02T08:29:19.000Z</time>
      </trkpt>
      <trkpt lat="39.633763" lon="-83.205339">
        <ele>261.307377</ele>
        <time>2024-06-02T08:29:22.000Z</time>
      </trkpt>
      <trkpt lat="39.632582" lon="-83.20541">
        <ele>261.323339</ele>
        <time>2024-06-02T08:29:35.000Z</time>
      </trkpt>
      <trkpt lat="39.631699" lon="-83.20546">
        <ele>260.899641</ele>
        <time>2024-06-02T08:29:45.000Z</time>
      </trkpt>
      <trkpt lat="39.630108" lon="-83.205555">
        <ele>259.248728</ele>
        <time>2024-06-02T08:30:03.000Z</time>
      </trkpt>
      <trkpt lat="39.629211" lon="-83.205608">
        <ele>257.955524</ele>
        <time>2024-06-02T08:30:13.000Z</time>
      </trkpt>
      <trkpt lat="39.628453" lon="-83.205656">
        <ele>256.254999</ele>
        <time>2024-06-02T08:30:21.000Z</time>
      </trkpt>
      <trkpt lat="39.628377" lon="-83.205652">
        <ele>256.104814</ele>
        <time>2024-06-02T08:30:22.000Z</time>
      </trkpt>
      <trkpt lat="39.627594" lon="-83.205701">
        <ele>254.375546</ele>
        <time>2024-06-02T08:30:31.000Z</time>
      </trkpt>
      <trkpt lat="39.627008" lon="-83.205833">
        <ele>252.889222</ele>
        <time>2024-06-02T08:30:38.000Z</time>
      </trkpt>
      <trkpt lat="39.626613" lon="-83.205929">
        <ele>251.864183</ele>
        <time>2024-06-02T08:30:42.000Z</time>
      </trkpt>
      <trkpt lat="39.625432" lon="-83.206442">
        <ele>249.511</ele>
        <time>2024-06-02T08:30:56.000Z</time>
      </trkpt>
      <trkpt lat="39.624661" lon="-83.205868">
        <ele>249.714958</ele>
        <time>2024-06-02T08:31:06.000Z</time>
      </trkpt>
      <trkpt lat="39.624589" lon="-83.206071">
        <ele>249.754023</ele>
        <time>2024-06-02T08:31:08.000Z</time>
      </trkpt>
      <trkpt lat="39.624382" lon="-83.207755">
        <ele>252.781471</ele>
        <time>2024-06-02T08:31:23.000Z</time>
      </trkpt>
      <trkpt lat="39.624333" lon="-83.208008">
        <ele>253.457565</ele>
        <time>2024-06-02T08:31:25.000Z</time>
      </trkpt>
      <trkpt lat="39.624081" lon="-83.208685">
        <ele>255.388789</ele>
        <time>2024-06-02T08:31:31.000Z</time>
      </trkpt>
      <trkpt lat="39.623624" lon="-83.209418">
        <ele>255.87246</ele>
        <time>2024-06-02T08:31:39.000Z</time>
      </trkpt>
      <trkpt lat="39.623362" lon="-83.209785">
        <ele>255.883887</ele>
        <time>2024-06-02T08:31:43.000Z</time>
      </trkpt>
      <trkpt lat="39.623119" lon="-83.210141">
        <ele>255.895439</ele>
        <time>2024-06-02T08:31:47.000Z</time>
      </trkpt>
      <trkpt lat="39.622651" lon="-83.21077">
        <ele>254.605474</ele>
        <time>2024-06-02T08:31:54.000Z</time>
      </trkpt>
      <trkpt lat="39.62213" lon="-83.21149">
        <ele>250.023892</ele>
        <time>2024-06-02T08:32:02.000Z</time>
      </trkpt>
      <trkpt lat="39.621642" lon="-83.212181">
        <ele>245.700711</ele>
        <time>2024-06-02T08:32:10.000Z</time>
      </trkpt>
      <trkpt lat="39.621039" lon="-83.212834">
        <ele>241.856344</ele>
        <time>2024-06-02T08:32:19.000Z</time>
      </trkpt>
      <trkpt lat="39.62089" lon="-83.213018">
        <ele>240.872803</ele>
        <time>2024-06-02T08:32:21.000Z</time>
      </trkpt>
      <trkpt lat="39.620816" lon="-83.213084">
        <ele>240.516347</ele>
        <time>2024-06-02T08:32:22.000Z</time>
      </trkpt>
      <trkpt lat="39.620463" lon="-83.213452">
        <ele>238.33393</ele>
        <time>2024-06-02T08:32:27.000Z</time>
      </trkpt>
      <trkpt lat="39.620405" lon="-83.213526">
        <ele>237.983408</ele>
        <time>2024-06-02T08:32:28.000Z</time>
      </trkpt>
      <trkpt lat="39.620076" lon="-83.213866">
        <ele>236.823499</ele>
        <time>2024-06-02T08:32:33.000Z</time>
      </trkpt>
      <trkpt lat="39.619827" lon="-83.214106">
        <ele>237.271978</ele>
        <time>2024-06-02T08:32:36.000Z</time>
      </trkpt>
      <trkpt lat="39.619476" lon="-83.214618">
        <ele>238.078093</ele>
        <time>2024-06-02T08:32:42.000Z</time>
      </trkpt>
      <trkpt lat="39.619274" lon="-83.215133">
        <ele>238.748206</ele>
        <time>2024-06-02T08:32:47.000Z</time>
      </trkpt>
      <trkpt lat="39.619074" lon="-83.215918">
        <ele>240.220708</ele>
        <time>2024-06-02T08:32:54.000Z</time>
      </trkpt>
      <trkpt lat="39.61898" lon="-83.21628">
        <ele>241.322629</ele>
        <time>2024-06-02T08:32:57.000Z</time>
      </trkpt>
      <trkpt lat="39.618775" lon="-83.21675">
        <ele>242.83037</ele>
        <time>2024-06-02T08:33:02.000Z</time>
      </trkpt>
      <trkpt lat="39.6185" lon="-83.217019">
        <ele>244.135679</ele>
        <time>2024-06-02T08:33:06.000Z</time>
      </trkpt>
      <trkpt lat="39.617439" lon="-83.217634">
        <ele>248.300086</ele>
        <time>2024-06-02T08:33:19.000Z</time>
      </trkpt>
      <trkpt lat="39.615456" lon="-83.22017">
        <ele>257.305251</ele>
        <time>2024-06-02T08:33:50.000Z</time>
      </trkpt>
      <trkpt lat="39.614097" lon="-83.220612">
        <ele>259.480078</ele>
        <time>2024-06-02T08:34:06.000Z</time>
      </trkpt>
      <trkpt lat="39.613774" lon="-83.220718">
        <ele>259.92312</ele>
        <time>2024-06-02T08:34:10.000Z</time>
      </trkpt>
      <trkpt lat="39.610591" lon="-83.221611">
        <ele>261.395712</ele>
        <time>2024-06-02T08:34:46.000Z</time>
      </trkpt>
      <trkpt lat="39.607567" lon="-83.222436">
        <ele>262.3908</ele>
        <time>2024-06-02T08:35:20.000Z</time>
      </trkpt>
      <trkpt lat="39.607179" lon="-83.222681">
        <ele>262.484182</ele>
        <time>2024-06-02T08:35:25.000Z</time>
      </trkpt>
      <trkpt lat="39.603036" lon="-83.229605">
        <ele>262.679424</ele>
        <time>2024-06-02T08:36:40.000Z</time>
      </trkpt>
      <trkpt lat="39.602866" lon="-83.229885">
        <ele>262.642796</ele>
        <time>2024-06-02T08:36:43.000Z</time>
      </trkpt>
      <trkpt lat="39.602562" lon="-83.230374">
        <ele>262.582101</ele>
        <time>2024-06-02T08:36:48.000Z</time>
      </trkpt>
      <trkpt lat="39.602299" lon="-83.230838">
        <ele>262.53504</ele>
        <time>2024-06-02T08:36:53.000Z</time>
      </trkpt>
      <trkpt lat="39.601915" lon="-83.231482">
        <ele>262.497108</ele>
        <time>2024-06-02T08:37:00.000Z</time>
      </trkpt>
      <trkpt lat="39.60158" lon="-83.232046">
        <ele>262.464193</ele>
        <time>2024-06-02T08:37:06.000Z</time>
      </trkpt>
      <trkpt lat="39.59978" lon="-83.235055">
        <ele>262.481429</ele>
        <time>2024-06-02T08:37:39.000Z</time>
      </trkpt>
      <trkpt lat="39.599643" lon="-83.235275">
        <ele>262.456362</ele>
        <time>2024-06-02T08:37:41.000Z</time>
      </trkpt>
      <trkpt lat="39.598956" lon="-83.236414">
        <ele>262.222429</ele>
        <time>2024-06-02T08:37:53.000Z</time>
      </trkpt>
      <trkpt lat="39.604129" lon="-83.242064">
        <ele>256.714705</ele>
        <time>2024-06-02T08:39:08.000Z</time>
      </trkpt>
      <trkpt lat="39.604651" lon="-83.24271">
        <ele>254.859443</ele>
        <time>2024-06-02T08:39:16.000Z</time>
      </trkpt>
      <trkpt lat="39.60592" lon="-83.244802">
        <ele>249.521544</ele>
        <time>2024-06-02T08:39:39.000Z</time>
      </trkpt>
      <trkpt lat="39.606423" lon="-83.245502">
        <ele>248.587608</ele>
        <time>2024-06-02T08:39:47.000Z</time>
      </trkpt>
      <trkpt lat="39.609558" lon="-83.248626">
        <ele>256.304337</ele>
        <time>2024-06-02T08:40:31.000Z</time>
      </trkpt>
      <trkpt lat="39.612085" lon="-83.251173">
        <ele>256.895969</ele>
        <time>2024-06-02T08:41:07.000Z</time>
      </trkpt>
      <trkpt lat="39.61261" lon="-83.251887">
        <ele>257.281358</ele>
        <time>2024-06-02T08:41:15.000Z</time>
      </trkpt>
      <trkpt lat="39.617088" lon="-83.258491">
        <ele>263.42384</ele>
        <time>2024-06-02T08:42:30.000Z</time>
      </trkpt>
      <trkpt lat="39.617239" lon="-83.258659">
        <ele>263.474785</ele>
        <time>2024-06-02T08:42:32.000Z</time>
      </trkpt>
      <trkpt lat="39.62058" lon="-83.26268">
        <ele>263.911303</ele>
        <time>2024-06-02T08:43:23.000Z</time>
      </trkpt>
      <trkpt lat="39.622305" lon="-83.264328">
        <ele>263.654933</ele>
        <time>2024-06-02T08:43:47.000Z</time>
      </trkpt>
      <trkpt lat="39.622374" lon="-83.264398">
        <ele>263.640623</ele>
        <time>2024-06-02T08:43:48.000Z</time>
      </trkpt>
      <trkpt lat="39.623153" lon="-83.265103">
        <ele>263.441625</ele>
        <time>2024-06-02T08:43:59.000Z</time>
      </trkpt>
      <trkpt lat="39.623611" lon="-83.265334">
        <ele>263.333041</ele>
        <time>2024-06-02T08:44:04.000Z</time>
      </trkpt>
      <trkpt lat="39.624151" lon="-83.265486">
        <ele>263.208505</ele>
        <time>2024-06-02T08:44:10.000Z</time>
      </trkpt>
      <trkpt lat="39.624666" lon="-83.265629">
        <ele>263.144782</ele>
        <time>2024-06-02T08:44:16.000Z</time>
      </trkpt>
      <trkpt lat="39.625171" lon="-83.265772">
        <ele>263.086708</ele>
        <time>2024-06-02T08:44:22.000Z</time>
      </trkpt>
      <trkpt lat="39.625668" lon="-83.265919">
        <ele>263.028387</ele>
        <time>2024-06-02T08:44:28.000Z</time>
      </trkpt>
      <trkpt lat="39.626167" lon="-83.266073">
        <ele>262.786021</ele>
        <time>2024-06-02T08:44:34.000Z</time>
      </trkpt>
      <trkpt lat="39.62668" lon="-83.266207">
        <ele>262.308161</ele>
        <time>2024-06-02T08:44:40.000Z</time>
      </trkpt>
      <trkpt lat="39.626919" lon="-83.266289">
        <ele>262.074542</ele>
        <time>2024-06-02T08:44:43.000Z</time>
      </trkpt>
      <trkpt lat="39.627472" lon="-83.266444">
        <ele>261.551789</ele>
        <time>2024-06-02T08:44:49.000Z</time>
      </trkpt>
      <trkpt lat="39.627583" lon="-83.266473">
        <ele>261.431485</ele>
        <time>2024-06-02T08:44:50.000Z</time>
      </trkpt>
      <trkpt lat="39.628096" lon="-83.266621">
        <ele>260.663968</ele>
        <time>2024-06-02T08:44:56.000Z</time>
      </trkpt>
      <trkpt lat="39.629368" lon="-83.267096">
        <ele>258.44305</ele>
        <time>2024-06-02T08:45:11.000Z</time>
      </trkpt>
      <trkpt lat="39.631825" lon="-83.268614">
        <ele>257.921462</ele>
        <time>2024-06-02T08:45:41.000Z</time>
      </trkpt>
      <trkpt lat="39.638277" lon="-83.272665">
        <ele>259.79972</ele>
        <time>2024-06-02T08:47:01.000Z</time>
      </trkpt>
      <trkpt lat="39.641146" lon="-83.274458">
        <ele>257.599838</ele>
        <time>2024-06-02T08:47:36.000Z</time>
      </trkpt>
      <trkpt lat="39.641647" lon="-83.27467">
        <ele>257.339791</ele>
        <time>2024-06-02T08:47:42.000Z</time>
      </trkpt>
      <trkpt lat="39.642254" lon="-83.274808">
        <ele>257.018549</ele>
        <time>2024-06-02T08:47:49.000Z</time>
      </trkpt>
      <trkpt lat="39.642957" lon="-83.274783">
        <ele>256.865024</ele>
        <time>2024-06-02T08:47:57.000Z</time>
      </trkpt>
      <trkpt lat="39.643766" lon="-83.274652">
        <ele>256.814317</ele>
        <time>2024-06-02T08:48:06.000Z</time>
      </trkpt>
      <trkpt lat="39.652625" lon="-83.273309">
        <ele>256.251352</ele>
        <time>2024-06-02T08:49:45.000Z</time>
      </trkpt>
      <trkpt lat="39.653568" lon="-83.273048">
        <ele>255.919309</ele>
        <time>2024-06-02T08:49:56.000Z</time>
      </trkpt>
      <trkpt lat="39.654242" lon="-83.272739">
        <ele>255.560753</ele>
        <time>2024-06-02T08:50:04.000Z</time>
      </trkpt>
      <trkpt lat="39.657686" lon="-83.27066">
        <ele>254.572293</ele>
        <time>2024-06-02T08:50:46.000Z</time>
      </trkpt>
      <trkpt lat="39.658271" lon="-83.270302">
        <ele>254.563394</ele>
        <time>2024-06-02T08:50:53.000Z</time>
      </trkpt>
      <trkpt lat="39.66068" lon="-83.268868">
        <ele>254.712939</ele>
        <time>2024-06-02T08:51:22.000Z</time>
      </trkpt>
      <trkpt lat="39.661377" lon="-83.268511">
        <ele>254.5104</ele>
        <time>2024-06-02T08:51:30.000Z</time>
      </trkpt>
      <trkpt lat="39.661226" lon="-83.267788">
        <ele>253.816728</ele>
        <time>2024-06-02T08:51:36.000Z</time>
      </trkpt>
      <trkpt lat="39.660809" lon="-83.266513">
        <ele>252.368035</ele>
        <time>2024-06-02T08:51:48.000Z</time>
      </trkpt>
      <trkpt lat="39.660411" lon="-83.265334">
        <ele>251.164117</ele>
        <time>2024-06-02T08:51:59.000Z</time>
      </trkpt>
      <trkpt lat="39.660389" lon="-83.265286">
        <ele>251.109043</ele>
        <time>2024-06-02T08:51:59.000Z</time>
      </trkpt>
      <trkpt lat="39.659798" lon="-83.263476">
        <ele>249.878007</ele>
        <time>2024-06-02T08:52:16.000Z</time>
      </trkpt>
      <trkpt lat="39.659573" lon="-83.262645">
        <ele>249.786209</ele>
        <time>2024-06-02T08:52:24.000Z</time>
      </trkpt>
      <trkpt lat="39.65944" lon="-83.261679">
        <ele>249.89603</ele>
        <time>2024-06-02T08:52:32.000Z</time>
      </trkpt>
      <trkpt lat="39.659148" lon="-83.258054">
        <ele>254.77538</ele>
        <time>2024-06-02T08:53:03.000Z</time>
      </trkpt>
      <trkpt lat="39.65907" lon="-83.257543">
        <ele>255.78037</ele>
        <time>2024-06-02T08:53:07.000Z</time>
      </trkpt>
      <trkpt lat="39.658952" lon="-83.257193">
        <ele>256.66765</ele>
        <time>2024-06-02T08:53:10.000Z</time>
      </trkpt>
      <trkpt lat="39.658779" lon="-83.25686">
        <ele>258.06732</ele>
        <time>2024-06-02T08:53:13.000Z</time>
      </trkpt>
      <trkpt lat="39.6578" lon="-83.25564">
        <ele>264.462674</ele>
        <time>2024-06-02T08:53:28.000Z</time>
      </trkpt>
      <trkpt lat="39.657668" lon="-83.255476">
        <ele>265.019769</ele>
        <time>2024-06-02T08:53:30.000Z</time>
      </trkpt>
      <trkpt lat="39.656691" lon="-83.254274">
        <ele>268.156881</ele>
        <time>2024-06-02T08:53:45.000Z</time>
      </trkpt>
      <trkpt lat="39.656581" lon="-83.254164">
        <ele>268.454551</ele>
        <time>2024-06-02T08:53:47.000Z</time>
      </trkpt>
      <trkpt lat="39.656217" lon="-83.253726">
        <ele>268.973022</ele>
        <time>2024-06-02T08:53:53.000Z</time>
      </trkpt>
      <trkpt lat="39.655774" lon="-83.253181">
        <ele>268.996775</ele>
        <time>2024-06-02T08:54:00.000Z</time>
      </trkpt>
      <trkpt lat="39.654709" lon="-83.251902">
        <ele>268.935201</ele>
        <time>2024-06-02T08:54:16.000Z</time>
      </trkpt>
      <trkpt lat="39.654152" lon="-83.251184">
        <ele>268.798552</ele>
        <time>2024-06-02T08:54:25.000Z</time>
      </trkpt>
      <trkpt lat="39.653887" lon="-83.250584">
        <ele>268.701717</ele>
        <time>2024-06-02T08:54:31.000Z</time>
      </trkpt>
      <trkpt lat="39.653483" lon="-83.249294">
        <ele>268.468115</ele>
        <time>2024-06-02T08:54:43.000Z</time>
      </trkpt>
      <trkpt lat="39.652299" lon="-83.245651">
        <ele>267.414213</ele>
        <time>2024-06-02T08:55:17.000Z</time>
      </trkpt>
      <trkpt lat="39.650941" lon="-83.241508">
        <ele>264.241446</ele>
        <time>2024-06-02T08:55:56.000Z</time>
      </trkpt>
      <trkpt lat="39.650534" lon="-83.240241">
        <ele>262.955847</ele>
        <time>2024-06-02T08:56:08.000Z</time>
      </trkpt>
      <trkpt lat="39.649926" lon="-83.23834">
        <ele>262.542766</ele>
        <time>2024-06-02T08:56:26.000Z</time>
      </trkpt>
      <trkpt lat="39.649582" lon="-83.237309">
        <ele>262.932028</ele>
        <time>2024-06-02T08:56:36.000Z</time>
      </trkpt>
      <trkpt lat="39.649318" lon="-83.236513">
        <ele>263.672132</ele>
        <time>2024-06-02T08:56:43.000Z</time>
      </trkpt>
      <trkpt lat="39.648889" lon="-83.235145">
        <ele>264.634368</ele>
        <time>2024-06-02T08:56:56.000Z</time>
      </trkpt>
      <trkpt lat="39.647903" lon="-83.231425">
        <ele>265.089816</ele>
        <time>2024-06-02T08:57:30.000Z</time>
      </trkpt>
      <trkpt lat="39.64759" lon="-83.230392">
        <ele>265.082505</ele>
        <time>2024-06-02T08:57:40.000Z</time>
      </trkpt>
      <trkpt lat="39.646148" lon="-83.2256">
        <ele>264.989603</ele>
        <time>2024-06-02T08:58:24.000Z</time>
      </trkpt>
      <trkpt lat="39.645388" lon="-83.223098">
        <ele>264.857154</ele>
        <time>2024-06-02T08:58:47.000Z</time>
      </trkpt>
      <trkpt lat="39.643217" lon="-83.216196">
        <ele>263.966936</ele>
        <time>2024-06-02T08:59:51.000Z</time>
      </trkpt>
      <trkpt lat="39.640584" lon="-83.207824">
        <ele>262.15879</ele>
        <time>2024-06-02T09:01:08.000Z</time>
      </trkpt>
      <trkpt lat="39.640306" lon="-83.206911">
        <ele>262.042464</ele>
        <time>2024-06-02T09:01:16.000Z</time>
      </trkpt>
      <trkpt lat="39.640082" lon="-83.206244">
        <ele>262.002947</ele>
        <time>2024-06-02T09:01:22.000Z</time>
      </trkpt>
      <trkpt lat="39.638725" lon="-83.206336">
        <ele>261.881555</ele>
        <time>2024-06-02T09:01:37.000Z</time>
      </trkpt>
      <trkpt lat="39.63814" lon="-83.206367">
        <ele>261.813948</ele>
        <time>2024-06-02T09:01:44.000Z</time>
      </trkpt>
      <trkpt lat="39.637705" lon="-83.206378">
        <ele>261.762096</ele>
        <time>2024-06-02T09:01:49.000Z</time>
      </trkpt>
      <trkpt lat="39.636853" lon="-83.206434">
        <ele>261.588077</ele>
        <time>2024-06-02T09:01:58.000Z</time>
      </trkpt>
      <trkpt lat="39.636494" lon="-83.206466">
        <ele>261.500486</ele>
        <time>2024-06-02T09:02:02.000Z</time>
      </trkpt>
      <trkpt lat="39.636114" lon="-83.206484">
        <ele>261.403474</ele>
        <time>2024-06-02T09:02:06.000Z</time>
      </trkpt>
      <trkpt lat="39.634881" lon="-83.206548">
        <ele>261.248191</ele>
        <time>2024-06-02T09:02:20.000Z</time>
      </trkpt>
      <trkpt lat="39.634198" lon="-83.206561">
        <ele>261.21638</ele>
        <time>2024-06-02T09:02:28.000Z</time>
      </trkpt>
      <trkpt lat="39.634101" lon="-83.206382">
        <ele>261.208165</ele>
        <time>2024-06-02T09:02:30.000Z</time>
      </trkpt>
      <trkpt lat="39.633995" lon="-83.205469">
        <ele>261.265868</ele>
        <time>2024-06-02T09:02:38.000Z</time>
      </trkpt>
      <trkpt lat="39.633754" lon="-83.20533">
        <ele>261.299727</ele>
        <time>2024-06-02T09:02:41.000Z</time>
      </trkpt>
      <trkpt lat="39.632582" lon="-83.2054">
        <ele>261.367506</ele>
        <time>2024-06-02T09:02:54.000Z</time>
      </trkpt>
      <trkpt lat="39.631701" lon="-83.20546">
        <ele>260.886416</ele>
        <time>2024-06-02T09:03:04.000Z</time>
      </trkpt>
      <trkpt lat="39.630096" lon="-83.205549">
        <ele>259.252159</ele>
        <time>2024-06-02T09:03:22.000Z</time>
      </trkpt>
      <trkpt lat="39.629207" lon="-83.205595">
        <ele>257.934362</ele>
        <time>2024-06-02T09:03:32.000Z</time>
      </trkpt>
      <trkpt lat="39.628436" lon="-83.20564">
        <ele>256.259192</ele>
        <time>2024-06-02T09:03:41.000Z</time>
      </trkpt>
      <trkpt lat="39.628373" lon="-83.205648">
        <ele>256.105479</ele>
        <time>2024-06-02T09:03:42.000Z</time>
      </trkpt>
      <trkpt lat="39.627597" lon="-83.205695">
        <ele>254.33544</ele>
        <time>2024-06-02T09:03:51.000Z</time>
      </trkpt>
      <trkpt lat="39.627012" lon="-83.205834">
        <ele>252.898989</ele>
        <time>2024-06-02T09:03:58.000Z</time>
      </trkpt>
      <trkpt lat="39.626615" lon="-83.205921">
        <ele>251.896545</ele>
        <time>2024-06-02T09:04:02.000Z</time>
      </trkpt>
      <trkpt lat="39.625419" lon="-83.206438">
        <ele>249.321177</ele>
        <time>2024-06-02T09:04:16.000Z</time>
      </trkpt>
      <trkpt lat="39.624656" lon="-83.205868">
        <ele>249.786029</ele>
        <time>2024-06-02T09:04:26.000Z</time>
      </trkpt>
      <trkpt lat="39.624591" lon="-83.206074">
        <ele>249.875038</ele>
        <time>2024-06-02T09:04:28.000Z</time>
      </trkpt>
      <trkpt lat="39.624372" lon="-83.207743">
        <ele>252.705027</ele>
        <time>2024-06-02T09:04:43.000Z</time>
      </trkpt>
      <trkpt lat="39.624323" lon="-83.207999">
        <ele>253.384609</ele>
        <time>2024-06-02T09:04:45.000Z</time>
      </trkpt>
      <trkpt lat="39.624074" lon="-83.208692">
        <ele>255.325772</ele>
        <time>2024-06-02T09:04:52.000Z</time>
      </trkpt>
      <trkpt lat="39.623622" lon="-83.209422">
        <ele>256.007575</ele>
        <time>2024-06-02T09:05:00.000Z</time>
      </trkpt>
      <trkpt lat="39.623375" lon="-83.209778">
        <ele>255.85302</ele>
        <time>2024-06-02T09:05:04.000Z</time>
      </trkpt>
      <trkpt lat="39.623101" lon="-83.210132">
        <ele>255.696919</ele>
        <time>2024-06-02T09:05:08.000Z</time>
      </trkpt>
      <trkpt lat="39.622654" lon="-83.210768">
        <ele>254.86353</ele>
        <time>2024-06-02T09:05:15.000Z</time>
      </trkpt>
      <trkpt lat="39.622131" lon="-83.211505">
        <ele>250.116331</ele>
        <time>2024-06-02T09:05:24.000Z</time>
      </trkpt>
      <trkpt lat="39.621652" lon="-83.212168">
        <ele>245.636904</ele>
        <time>2024-06-02T09:05:32.000Z</time>
      </trkpt>
      <trkpt lat="39.621035" lon="-83.21285">
        <ele>241.800195</ele>
        <time>2024-06-02T09:05:41.000Z</time>
      </trkpt>
      <trkpt lat="39.620884" lon="-83.213015">
        <ele>240.897585</ele>
        <time>2024-06-02T09:05:43.000Z</time>
      </trkpt>
      <trkpt lat="39.620826" lon="-83.21309">
        <ele>240.570465</ele>
        <time>2024-06-02T09:05:44.000Z</time>
      </trkpt>
      <trkpt lat="39.62046" lon="-83.213464">
        <ele>238.56764</ele>
        <time>2024-06-02T09:05:49.000Z</time>
      </trkpt>
      <trkpt lat="39.620397" lon="-83.213516">
        <ele>238.245967</ele>
        <time>2024-06-02T09:05:50.000Z</time>
      </trkpt>
      <trkpt lat="39.620072" lon="-83.21386">
        <ele>236.501188</ele>
        <time>2024-06-02T09:05:55.000Z</time>
      </trkpt>
      <trkpt lat="39.619839" lon="-83.2141">
        <ele>237.041244</ele>
        <time>2024-06-02T09:05:58.000Z</time>
      </trkpt>
      <trkpt lat="39.61948" lon="-83.214608">
        <ele>238.011904</ele>
        <time>2024-06-02T09:06:04.000Z</time>
      </trkpt>
      <trkpt lat="39.619282" lon="-83.215135">
        <ele>238.818834</ele>
        <time>2024-06-02T09:06:09.000Z</time>
      </trkpt>
      <trkpt lat="39.619074" lon="-83.215911">
        <ele>240.186652</ele>
        <time>2024-06-02T09:06:16.000Z</time>
      </trkpt>
      <trkpt lat="39.618996" lon="-83.21628">
        <ele>241.297691</ele>
        <time>2024-06-02T09:06:19.000Z</time>
      </trkpt>
      <trkpt lat="39.61879" lon="-83.21675">
        <ele>242.817868</ele>
        <time>2024-06-02T09:06:24.000Z</time>
      </trkpt>
      <trkpt lat="39.618494" lon="-83.217014">
        <ele>244.133963</ele>
        <time>2024-06-02T09:06:28.000Z</time>
      </trkpt>
      <trkpt lat="39.61744" lon="-83.217628">
        <ele>248.315355</ele>
        <time>2024-06-02T09:06:41.000Z</time>
      </trkpt>
      <trkpt lat="39.615469" lon="-83.220178">
        <ele>257.273554</ele>
        <time>2024-06-02T09:07:12.000Z</time>
      </trkpt>
      <trkpt lat="39.614098" lon="-83.220617">
        <ele>259.691177</ele>
        <time>2024-06-02T09:07:28.000Z</time>
      </trkpt>
      <trkpt lat="39.61426" lon="-83.221583">
        <ele>260.667015</ele>
        <time>2024-06-02T09:07:36.000Z</time>
      </trkpt>
      <trkpt lat="39.61443" lon="-83.222034">
        <ele>260.848982</ele>
        <time>2024-06-02T09:07:40.000Z</time>
      </trkpt>
      <trkpt lat="39.615012" lon="-83.222922">
        <ele>261.268225</ele>
        <time>2024-06-02T09:07:50.000Z</time>
      </trkpt>
      <trkpt lat="39.615242" lon="-83.223465">
        <ele>261.481647452</ele>
        <time>2024-06-02T09:07:55.000Z</time>
      </trkpt>
      <trkpt lat="39.615352" lon="-83.224091">
        <ele>261.702787267</ele>
        <time>2024-06-02T09:08:00.000Z</time>
      </trkpt>
      <trkpt lat="39.615488" lon="-83.224842">
        <ele>261.968490979</ele>
        <time>2024-06-02T09:08:07.000Z</time>
      </trkpt>
      <trkpt lat="39.615669" lon="-83.225173">
        <ele>262.108292712</ele>
        <time>2024-06-02T09:08:10.000Z</time>
      </trkpt>
      <trkpt lat="39.6158" lon="-83.225302">
        <ele>262.181806057</ele>
        <time>2024-06-02T09:08:12.000Z</time>
      </trkpt>
    </trkseg>
  </trk>
</gpx>

<!--
Performance optimized by W3 Total Cache. Learn more: https://www.boldgrid.com/w3-total-cache/?utm_source=w3tc&utm_medium=footer_comment&utm_campaign=free_plugin

Page Caching using Disk: Enhanced{w3tc_pagecache_reject_reason} 

Served from: www.aquabike.world @ 2026-05-10 18:49:49 by W3 Total Cache
-->